createdAt,value
2023-02-19T01:00:43.187Z,3.5
2023-02-19T01:15:43.771Z,2.3
2023-02-19T01:30:44.525Z,2.8
2023-02-19T01:45:44.882Z,3.2
2023-02-19T02:00:46.038Z,2.3
2023-02-19T02:15:46.763Z,3
2023-02-19T02:30:50.721Z,3
2023-02-19T02:45:47.917Z,3.8
2023-02-19T03:00:49.617Z,4.1
2023-02-19T03:15:48.783Z,5.4
2023-02-19T03:30:49.665Z,4.9
2023-02-19T03:45:51.238Z,8.5
2023-02-19T04:00:53.580Z,6.1
2023-02-19T04:15:54.395Z,6.8
2023-02-19T04:30:55.600Z,5.3
2023-02-19T04:45:57.406Z,5.6
2023-02-19T05:00:56.013Z,4.1
2023-02-19T05:15:56.615Z,4.5
2023-02-19T05:30:57.674Z,6.5
2023-02-19T05:45:57.335Z,6
2023-02-19T06:00:58.157Z,4.4
2023-02-19T06:16:02.032Z,5.2
2023-02-19T06:19:36.504Z,6.8
2023-02-19T06:34:36.679Z,6.6
2023-02-19T06:49:40.953Z,5.2
2023-02-19T07:04:40.577Z,7
2023-02-19T07:19:38.335Z,8
2023-02-19T07:34:51.453Z,8.1
2023-02-19T07:35:58.741Z,7
2023-02-19T07:50:59.077Z,7.4
2023-02-19T08:05:59.729Z,6.2
2023-02-19T08:21:00.908Z,5.1
2023-02-19T08:36:02.620Z,5.5
2023-02-19T08:51:02.107Z,5
2023-02-19T09:06:02.565Z,4.8
2023-02-19T09:21:02.717Z,3.8
2023-02-19T09:36:03.111Z,3.4
2023-02-19T09:51:04.038Z,3.5
2023-02-19T10:06:10.955Z,2.7
2023-02-19T10:21:07.444Z,2.6
2023-02-19T10:36:08.297Z,2.8
2023-02-19T11:36:07.843Z,1.9
2023-02-19T11:51:10.412Z,2
2023-02-19T12:06:09.153Z,1.1
2023-02-19T12:21:12.736Z,0.9
2023-02-19T12:36:15.241Z,0.5
2023-02-19T13:06:20.745Z,1.6
2023-02-19T14:21:17.738Z,0.8
2023-02-19T14:36:17.963Z,0.6
2023-02-19T15:06:46.077Z,4
2023-02-19T17:21:23.878Z,1
2023-02-19T17:36:26.760Z,2.2
2023-02-19T17:51:39.171Z,1.5
2023-02-19T18:06:24.883Z,4.5
2023-02-19T18:21:25.332Z,2.9
2023-02-19T18:36:27.809Z,1.7
2023-02-19T18:51:38.891Z,3.3
2023-02-19T19:21:28.611Z,2.8
2023-02-19T19:36:31.382Z,3.3
2023-02-19T20:06:41.110Z,2.3
2023-02-19T20:21:30.801Z,3.5
2023-02-19T20:37:07.536Z,3.2
2023-02-19T20:51:33.954Z,3.7
2023-02-19T21:06:42.919Z,4.5
2023-02-19T21:21:32.674Z,4.5
2023-02-19T21:36:38.974Z,2.9
2023-02-19T22:36:35.666Z,3.3
